Time;durP1;ratioP1;P1;durP2;ratioP2;P2;SDS_P1;SDS_P2;PMS_P1;PMS_P2;Temp;Humidity;BMP_temperature;BMP_pressure;BME280_temperature;BME280_humidity;BME280_pressure;Samples;Min_cycle;Max_cycle;Signal;HPM_P1;HPM_P2
2023/12/13 00:00:18;;;;;;;5.25;3.53;;;;;;;4.91;100.00;62501.25;5074528;28;20255;-77
2023/12/13 00:02:45;;;;;;;4.57;3.55;;;;;;;4.92;100.00;62499.25;5072993;28;20201;-76
2023/12/13 00:05:13;;;;;;;3.13;2.92;;;;;;;4.90;100.00;62500.22;5066865;28;20225;-76
2023/12/13 00:07:40;;;;;;;4.30;3.95;;;;;;;4.90;100.00;62500.22;5082696;28;20201;-77
2023/12/13 00:10:08;;;;;;;8.40;5.05;;;;;;;4.87;100.00;62496.63;5081153;28;20216;-76
2023/12/13 00:12:35;;;;;;;6.03;4.88;;;;;;;4.91;100.00;62501.25;5070958;28;20285;-76
2023/12/13 00:15:02;;;;;;;8.43;4.45;;;;;;;4.90;100.00;62504.75;5066557;28;20232;-76
2023/12/13 00:17:30;;;;;;;4.72;3.80;;;;;;;4.94;100.00;62506.88;5067626;28;20239;-77
2023/12/13 00:19:57;;;;;;;4.82;4.22;;;;;;;4.94;100.00;62508.88;5069419;28;20267;-77
2023/12/13 00:22:25;;;;;;;6.75;4.75;;;;;;;4.87;100.00;62504.69;5070108;28;20194;-75
2023/12/13 00:24:52;;;;;;;3.95;3.53;;;;;;;4.87;100.00;62499.66;5065578;28;20287;-75
2023/12/13 00:27:20;;;;;;;4.85;4.20;;;;;;;4.88;100.00;62500.16;5074856;28;20276;-74
2023/12/13 00:29:47;;;;;;;5.65;4.03;;;;;;;4.91;100.00;62506.31;5083517;28;20266;-75
2023/12/13 00:32:14;;;;;;;3.20;3.00;;;;;;;4.88;100.00;62498.16;5079402;28;20200;-75
2023/12/13 00:34:41;;;;;;;3.67;3.40;;;;;;;4.92;100.00;62502.28;5070776;28;20224;-76
2023/12/13 00:37:07;;;;;;;3.50;2.95;;;;;;;4.89;100.00;62504.25;5064371;28;20198;-75
2023/12/13 00:39:36;;;;;;;5.97;4.78;;;;;;;4.85;100.00;62497.59;5078815;28;20341;-76
2023/12/13 00:42:03;;;;;;;5.75;4.07;;;;;;;4.86;100.00;62498.13;5065624;28;20281;-76
2023/12/13 00:44:31;;;;;;;5.93;4.05;;;;;;;4.87;100.00;62502.19;5077531;28;20291;-74
2023/12/13 00:46:59;;;;;;;6.07;5.03;;;;;;;4.89;100.00;62504.25;5064205;28;20261;-74
2023/12/13 00:49:25;;;;;;;5.57;3.90;;;;;;;4.84;100.00;62496.56;5064508;28;20248;-75
2023/12/13 00:51:52;;;;;;;8.82;6.63;;;;;;;4.80;100.00;62497.50;5064135;28;20267;-75
2023/12/13 00:54:19;;;;;;;4.90;4.53;;;;;;;4.76;100.00;62490.88;5071409;28;20395;-75
2023/12/13 00:56:48;;;;;;;7.97;6.22;;;;;;;4.71;100.00;62481.16;5085474;28;20203;-76
2023/12/13 00:59:15;;;;;;;9.57;7.50;;;;;;;4.75;100.00;62487.31;5084293;28;20216;-75
2023/12/13 01:01:44;;;;;;;10.25;7.05;;;;;;;4.81;100.00;62492.97;5067395;28;20202;-76
2023/12/13 01:04:12;;;;;;;10.85;6.38;;;;;;;4.81;100.00;62493.47;5071622;28;20233;-76
2023/12/13 01:06:39;;;;;;;12.10;7.85;;;;;;;4.85;100.00;62490.03;5077483;28;20196;-75
2023/12/13 01:09:06;;;;;;;8.88;6.53;;;;;;;4.85;100.00;62495.06;5069871;28;20483;-75
2023/12/13 01:11:33;;;;;;;4.50;4.10;;;;;;;4.86;100.00;62501.16;5078272;28;20204;-75
2023/12/13 01:14:02;;;;;;;6.25;5.13;;;;;;;4.87;100.00;62491.59;5076620;28;20444;-75
2023/12/13 01:16:29;;;;;;;4.20;3.90;;;;;;;4.90;100.00;62509.81;5063688;28;20303;-77
2023/12/13 01:18:56;;;;;;;2.97;2.60;;;;;;;4.74;100.00;62483.75;5073361;28;20221;-75
2023/12/13 01:21:23;;;;;;;4.10;2.85;;;;;;;4.58;100.00;62472.84;5065367;28;20225;-75
2023/12/13 01:23:51;;;;;;;7.63;3.13;;;;;;;4.60;100.00;62474.38;5067387;28;20275;-75
2023/12/13 01:26:17;;;;;;;5.35;3.50;;;;;;;4.67;100.00;62481.59;5063985;28;20224;-75
2023/12/13 01:28:44;;;;;;;3.92;3.60;;;;;;;4.69;100.00;62479.13;5064341;28;20224;-75
2023/12/13 01:31:13;;;;;;;7.72;4.05;;;;;;;4.69;100.00;62478.63;5072292;28;20263;-76
2023/12/13 01:33:40;;;;;;;5.50;4.32;;;;;;;4.83;100.00;62492.50;5065459;28;20233;-75
2023/12/13 01:36:08;;;;;;;5.60;4.60;;;;;;;4.85;100.00;62494.56;5063876;28;20273;-76
2023/12/13 01:38:35;;;;;;;5.35;4.85;;;;;;;4.91;100.00;62498.22;5073943;28;20264;-78
2023/12/13 01:41:02;;;;;;;6.30;4.93;;;;;;;4.95;100.00;62507.38;5084449;28;20232;-75
2023/12/13 01:43:30;;;;;;;9.30;5.15;;;;;;;4.97;100.00;62509.44;5069277;28;20307;-76
2023/12/13 01:45:58;;;;;;;7.50;5.30;;;;;;;5.08;100.00;62523.28;5074566;28;20259;-75
2023/12/13 01:48:27;;;;;;;5.40;4.90;;;;;;;5.17;100.00;62530.56;5081830;28;20426;-76
2023/12/13 01:50:54;;;;;;;9.88;8.30;;;;;;;5.23;100.00;62536.72;5064422;28;20369;-75
2023/12/13 01:53:21;;;;;;;12.13;9.90;;;;;;;5.31;100.00;62541.94;5067985;28;20525;-75
2023/12/13 01:55:48;;;;;;;10.18;7.25;;;;;;;5.35;100.00;62551.59;5067351;28;20219;-75
2023/12/13 01:58:15;;;;;;;8.98;7.75;;;;;;;5.41;100.00;62555.28;5069809;28;20208;-75
2023/12/13 02:00:42;;;;;;;5.22;4.65;;;;;;;5.44;100.00;62553.31;5083975;28;20279;-76
2023/12/13 02:03:09;;;;;;;3.50;3.20;;;;;;;5.48;100.00;62561.97;5083943;28;20373;-76
2023/12/13 02:05:38;;;;;;;9.20;4.05;;;;;;;5.53;100.00;62564.59;5079684;28;20295;-77
2023/12/13 02:08:05;;;;;;;4.57;3.60;;;;;;;5.54;100.00;62566.13;5074348;28;20264;-76
2023/12/13 02:10:32;;;;;;;5.82;4.00;;;;;;;5.53;100.00;62567.13;5079866;28;20329;-76
2023/12/13 02:12:59;;;;;;;4.28;3.45;;;;;;;5.51;100.00;62565.56;5083445;28;20212;-76
2023/12/13 02:15:26;;;;;;;3.88;3.42;;;;;;;5.53;100.00;62564.59;5067711;28;20284;-75
2023/12/13 02:17:53;;;;;;;3.60;2.90;;;;;;;5.56;100.00;62570.72;5081982;28;20380;-75
2023/12/13 02:20:20;;;;;;;4.70;2.95;;;;;;;5.58;100.00;62570.25;5083868;28;20291;-75
2023/12/13 02:22:49;;;;;;;3.65;3.17;;;;;;;5.53;100.00;62570.16;5079061;28;20225;-76
2023/12/13 02:25:16;;;;;;;3.30;3.00;;;;;;;5.56;100.00;62572.72;5062744;28;20319;-75
2023/12/13 02:27:43;;;;;;;2.97;2.72;;;;;;;5.60;100.00;62571.81;5063973;28;20243;-75
2023/12/13 02:30:11;;;;;;;3.50;3.20;;;;;;;5.66;100.00;62575.97;5066992;28;20225;-76
2023/12/13 02:32:38;;;;;;;3.72;3.42;;;;;;;5.78;100.00;62595.41;5068120;28;20235;-76
2023/12/13 02:35:06;;;;;;;3.13;2.92;;;;;;;5.65;100.00;62582.00;5081967;28;20231;-75
2023/12/13 02:37:33;;;;;;;3.30;2.90;;;;;;;5.73;100.00;62588.22;5086973;28;20196;-76
2023/12/13 02:40:03;;;;;;;3.38;3.08;;;;;;;5.80;100.00;62595.44;5087094;28;20237;-75
2023/12/13 02:42:30;;;;;;;2.97;2.78;;;;;;;5.85;100.00;62605.66;5080227;28;20207;-74
2023/12/13 02:44:57;;;;;;;3.25;2.42;;;;;;;5.79;100.00;62593.91;5066631;28;20229;-75
2023/12/13 02:47:25;;;;;;;2.70;2.50;;;;;;;5.65;100.00;62574.94;5068040;28;20194;-75
2023/12/13 02:49:53;;;;;;;3.47;3.17;;;;;;;5.60;100.00;62574.31;5066808;28;20450;-75
2023/12/13 02:52:20;;;;;;;3.80;3.42;;;;;;;5.50;100.00;62564.03;5069264;28;20201;-75
2023/12/13 02:54:47;;;;;;;4.03;3.67;;;;;;;5.08;100.00;62518.25;5084810;28;20220;-75
2023/12/13 02:57:15;;;;;;;4.65;4.15;;;;;;;4.70;100.00;62480.16;5086428;28;20207;-75
2023/12/13 02:59:42;;;;;;;4.60;4.15;;;;;;;4.73;100.00;62487.75;5086475;28;20217;-75
2023/12/13 03:02:09;;;;;;;5.40;4.60;;;;;;;4.84;100.00;62496.06;5075838;28;20567;-75
2023/12/13 03:04:36;;;;;;;9.40;7.00;;;;;;;4.97;100.00;62506.91;5087087;28;20505;-74
2023/12/13 03:07:04;;;;;;;14.38;7.22;;;;;;;5.00;100.00;62510.53;5083577;28;20298;-74
2023/12/13 03:09:31;;;;;;;9.32;5.75;;;;;;;5.03;100.00;62513.59;5068463;28;20373;-75
2023/12/13 03:11:58;;;;;;;6.38;5.00;;;;;;;4.87;100.00;62499.66;5076406;28;20246;-75
2023/12/13 03:14:26;;;;;;;6.10;5.22;;;;;;;4.74;100.00;62486.28;5070965;28;20221;-75
2023/12/13 03:16:53;;;;;;;7.22;6.38;;;;;;;4.49;100.00;62463.06;5078412;28;20216;-75
2023/12/13 03:19:20;;;;;;;7.05;5.88;;;;;;;4.45;100.00;62454.41;5085569;28;20221;-74
2023/12/13 03:21:47;;;;;;;9.45;6.72;;;;;;;4.43;100.00;62451.84;5073232;28;20279;-75
2023/12/13 03:24:14;;;;;;;8.10;6.35;;;;;;;4.23;100.00;62433.78;5065863;28;20221;-75
2023/12/13 03:26:41;;;;;;;10.43;7.55;;;;;;;4.25;100.00;62431.31;5086203;28;20206;-75
2023/12/13 03:29:08;;;;;;;11.50;7.75;;;;;;;4.18;100.00;62428.63;5073430;28;20228;-75
2023/12/13 03:31:36;;;;;;;10.40;7.38;;;;;;;4.26;100.00;62434.34;5065374;28;20204;-74
2023/12/13 03:34:03;;;;;;;8.77;7.68;;;;;;;4.27;100.00;62440.94;5066081;28;20210;-75
2023/12/13 03:36:30;;;;;;;11.05;8.45;;;;;;;4.30;100.00;62438.97;5067151;28;20252;-75
2023/12/13 03:38:56;;;;;;;10.07;7.88;;;;;;;4.18;100.00;62431.16;5081810;28;20303;-75
2023/12/13 03:41:23;;;;;;;11.10;8.02;;;;;;;4.22;100.00;62435.28;5069881;28;20290;-75
2023/12/13 03:43:50;;;;;;;15.07;7.85;;;;;;;4.21;100.00;62434.75;5065549;28;20251;-75
2023/12/13 03:46:17;;;;;;;12.52;8.15;;;;;;;4.26;100.00;62439.41;5067601;28;20298;-76
2023/12/13 03:48:45;;;;;;;9.30;8.02;;;;;;;4.16;100.00;62426.59;5083530;28;20216;-75
2023/12/13 03:51:12;;;;;;;9.05;7.28;;;;;;;4.15;100.00;62423.03;5077618;28;20208;-75
2023/12/13 03:53:42;;;;;;;12.27;8.40;;;;;;;4.01;100.00;62413.66;5065466;28;20241;-74
2023/12/13 03:56:09;;;;;;;14.27;8.30;;;;;;;3.99;100.00;62409.09;5071031;28;20264;-76
2023/12/13 03:58:37;;;;;;;10.10;7.55;;;;;;;4.12;100.00;62419.94;5079610;28;20547;-74
2023/12/13 04:01:04;;;;;;;13.43;8.15;;;;;;;3.99;100.00;62411.59;5076511;28;20288;-75
2023/12/13 04:03:31;;;;;;;10.63;7.20;;;;;;;4.07;100.00;62415.31;5085474;28;20197;-75
2023/12/13 04:06:00;;;;;;;11.93;7.35;;;;;;;3.93;100.00;62403.44;5079718;28;20201;-74
2023/12/13 04:08:27;;;;;;;9.23;7.32;;;;;;;4.12;100.00;62419.94;5080940;28;20226;-76
2023/12/13 04:10:54;;;;;;;7.72;6.93;;;;;;;4.17;100.00;62427.63;5085176;28;20275;-75
2023/12/13 04:13:21;;;;;;;12.38;7.38;;;;;;;4.23;100.00;62436.81;5083850;28;20203;-75
2023/12/13 04:15:48;;;;;;;11.27;7.13;;;;;;;3.99;100.00;62409.59;5064769;28;20224;-75
2023/12/13 04:18:15;;;;;;;8.68;6.88;;;;;;;4.10;100.00;62422.94;5082924;28;20277;-75
2023/12/13 04:20:42;;;;;;;7.65;6.13;;;;;;;4.24;100.00;62434.81;5066137;28;20232;-75
2023/12/13 04:23:11;;;;;;;16.92;7.05;;;;;;;4.12;100.00;62420.47;5070281;28;20237;-75
2023/12/13 04:25:39;;;;;;;9.25;7.03;;;;;;;4.26;100.00;62434.34;5079702;28;20538;-76
2023/12/13 04:28:06;;;;;;;7.00;6.20;;;;;;;4.18;100.00;62429.16;5082370;28;20209;-75
2023/12/13 04:30:33;;;;;;;9.65;6.75;;;;;;;4.13;100.00;62420.97;5080577;28;20228;-75
2023/12/13 04:33:00;;;;;;;9.13;7.05;;;;;;;4.24;100.00;62434.81;5064692;28;20213;-73
2023/12/13 04:35:28;;;;;;;9.20;6.80;;;;;;;4.24;100.00;62432.28;5073596;28;20258;-75
2023/12/13 04:37:55;;;;;;;9.20;7.50;;;;;;;4.42;100.00;62453.31;5068948;28;20197;-75
2023/12/13 04:40:23;;;;;;;7.75;6.70;;;;;;;4.46;100.00;62449.88;5066923;28;20510;-76
2023/12/13 04:42:50;;;;;;;7.78;6.97;;;;;;;4.47;100.00;62456.47;5064675;28;20201;-75
2023/12/13 04:45:17;;;;;;;9.52;7.20;;;;;;;4.47;100.00;62456.47;5067194;28;20221;-76
2023/12/13 04:47:44;;;;;;;8.70;6.97;;;;;;;4.53;100.00;62462.66;5065566;28;20200;-76
2023/12/13 04:50:11;;;;;;;11.30;7.30;;;;;;;4.62;100.00;62473.94;5074956;28;20232;-76
2023/12/13 04:52:38;;;;;;;9.05;6.65;;;;;;;4.55;100.00;62466.72;5065796;28;20209;-74
2023/12/13 04:55:06;;;;;;;8.48;6.78;;;;;;;4.60;100.00;62471.88;5071062;28;20224;-76
2023/12/13 04:57:34;;;;;;;8.20;6.32;;;;;;;4.58;100.00;62467.81;5083493;28;20208;-75
2023/12/13 05:00:04;;;;;;;7.93;6.30;;;;;;;4.69;100.00;62483.66;5075305;28;20555;-76
2023/12/13 05:02:30;;;;;;;7.28;6.55;;;;;;;4.44;100.00;62455.91;5081937;28;20295;-75
2023/12/13 05:04:57;;;;;;;9.05;6.68;;;;;;;4.46;100.00;62457.44;5074988;28;20440;-75
2023/12/13 05:07:26;;;;;;;10.40;7.30;;;;;;;4.24;100.00;62432.81;5081577;28;20203;-75
2023/12/13 05:09:54;;;;;;;8.52;7.30;;;;;;;4.22;100.00;62430.75;5079001;28;20223;-75
2023/12/13 05:12:21;;;;;;;11.55;7.10;;;;;;;4.28;100.00;62441.47;5083469;28;20397;-75
2023/12/13 05:14:49;;;;;;;9.52;7.32;;;;;;;4.29;100.00;62440.47;5081986;28;20513;-75
2023/12/13 05:17:16;;;;;;;9.93;8.20;;;;;;;4.24;100.00;62430.28;5063630;28;20307;-75
2023/12/13 05:19:43;;;;;;;8.88;7.18;;;;;;;4.17;100.00;62425.63;5071266;28;20235;-74
2023/12/13 05:22:10;;;;;;;9.25;8.00;;;;;;;4.09;100.00;62416.88;5068352;28;20233;-75
2023/12/13 05:24:37;;;;;;;7.80;6.82;;;;;;;4.13;100.00;62421.50;5075679;28;20220;-75
2023/12/13 05:27:04;;;;;;;7.65;6.80;;;;;;;4.12;100.00;62422.47;5064792;28;20201;-74
2023/12/13 05:29:31;;;;;;;9.88;7.32;;;;;;;3.97;100.00;62407.03;5068889;28;20232;-75
2023/12/13 05:32:00;;;;;;;11.43;7.50;;;;;;;3.80;100.00;62387.53;5064249;28;20205;-75
2023/12/13 05:34:27;;;;;;;14.13;8.35;;;;;;;3.84;100.00;62393.66;5064429;28;20235;-75
2023/12/13 05:36:54;;;;;;;11.80;8.55;;;;;;;3.88;100.00;62402.81;5074741;28;20246;-75
2023/12/13 05:39:21;;;;;;;12.00;9.02;;;;;;;3.93;100.00;62403.44;5076915;28;20221;-75
2023/12/13 05:41:48;;;;;;;13.15;9.98;;;;;;;4.00;100.00;62407.59;5084660;28;20232;-76
2023/12/13 05:44:15;;;;;;;14.45;10.30;;;;;;;4.08;100.00;62421.38;5084230;28;20220;-75
2023/12/13 05:46:42;;;;;;;13.57;9.73;;;;;;;4.18;100.00;62431.16;5064129;28;20204;-75
2023/12/13 05:49:10;;;;;;;16.75;10.85;;;;;;;4.33;100.00;62444.09;5064889;28;20520;-76
2023/12/13 05:51:37;;;;;;;15.55;9.85;;;;;;;4.21;100.00;62429.22;5063330;28;20201;-75
2023/12/13 05:54:04;;;;;;;17.70;9.77;;;;;;;4.30;100.00;62446.53;5072622;28;20231;-75
2023/12/13 05:56:31;;;;;;;12.60;9.30;;;;;;;4.42;100.00;62451.31;5079898;28;20509;-74
2023/12/13 05:58:58;;;;;;;14.65;9.35;;;;;;;4.49;100.00;62460.53;5078196;28;20229;-76
2023/12/13 06:01:25;;;;;;;12.27;9.38;;;;;;;4.58;100.00;62467.28;5079452;28;20234;-74
2023/12/13 06:03:52;;;;;;;13.30;9.30;;;;;;;4.64;100.00;62479.00;5080735;28;20217;-75
2023/12/13 06:06:21;;;;;;;13.68;8.60;;;;;;;4.57;100.00;62466.75;5084228;28;20203;-76
2023/12/13 06:08:48;;;;;;;13.07;8.77;;;;;;;4.69;100.00;62483.66;5077480;28;20236;-75
2023/12/13 06:11:15;;;;;;;10.43;7.97;;;;;;;4.86;100.00;62496.09;5086165;28;20197;-76
2023/12/13 06:13:42;;;;;;;14.77;9.15;;;;;;;4.98;100.00;62513.50;5088157;28;20216;-77
2023/12/13 06:16:12;;;;;;;13.10;9.43;;;;;;;5.01;100.00;62514.06;5087099;28;20304;-76
2023/12/13 06:18:39;;;;;;;12.48;9.60;;;;;;;5.03;100.00;62518.66;5086207;28;20286;-76
2023/12/13 06:21:06;;;;;;;14.52;10.52;;;;;;;5.15;100.00;62527.97;5086881;28;20231;-77
2023/12/13 06:23:35;;;;;;;16.38;9.98;;;;;;;5.08;100.00;62518.75;5086694;28;20188;-76
2023/12/13 06:26:02;;;;;;;13.05;10.65;;;;;;;5.14;100.00;62526.94;5087980;28;20192;-76
2023/12/13 06:28:29;;;;;;;12.10;8.50;;;;;;;5.18;100.00;62531.56;5085824;28;20456;-76
2023/12/13 06:30:56;;;;;;;12.32;9.80;;;;;;;5.20;100.00;62533.63;5082723;28;20272;-77
2023/12/13 06:33:23;;;;;;;13.50;10.25;;;;;;;5.32;100.00;62546.00;5084474;28;20195;-76
2023/12/13 06:35:50;;;;;;;11.77;9.13;;;;;;;5.37;100.00;62548.63;5086790;28;20524;-76
2023/12/13 06:38:17;;;;;;;13.90;10.45;;;;;;;4.96;100.00;62510.94;5082605;28;20409;-76
2023/12/13 06:40:45;;;;;;;14.20;9.70;;;;;;;5.01;100.00;62513.56;5086143;28;20213;-76
2023/12/13 06:43:12;;;;;;;15.73;10.95;;;;;;;4.95;100.00;62504.84;5086431;28;20228;-75
2023/12/13 06:45:39;;;;;;;16.52;10.70;;;;;;;5.01;100.00;62511.56;5085383;28;20284;-76
2023/12/13 06:48:07;;;;;;;21.85;12.15;;;;;;;5.02;100.00;62514.59;5086082;28;20234;-75
2023/12/13 06:50:34;;;;;;;14.57;9.70;;;;;;;5.03;100.00;62518.66;5085458;28;20250;-76
2023/12/13 06:53:01;;;;;;;14.63;9.90;;;;;;;5.13;100.00;62528.44;5086073;28;20468;-74
2023/12/13 06:55:31;;;;;;;15.90;11.82;;;;;;;5.24;100.00;62537.25;5080278;28;20221;-75
2023/12/13 06:58:00;;;;;;;13.70;10.10;;;;;;;5.46;100.00;62560.41;5086764;28;20427;-75
2023/12/13 07:00:27;;;;;;;14.95;9.80;;;;;;;5.54;100.00;62566.13;5086576;28;20254;-76
2023/12/13 07:02:54;;;;;;;16.38;10.68;;;;;;;5.51;100.00;62567.56;5085605;28;20231;-77
2023/12/13 07:05:21;;;;;;;13.75;9.20;;;;;;;5.60;100.00;62574.31;5084975;28;20224;-75
2023/12/13 07:07:48;;;;;;;14.50;9.95;;;;;;;5.68;100.00;62583.09;5085540;28;20509;-75
2023/12/13 07:10:15;;;;;;;14.32;10.77;;;;;;;5.66;100.00;62578.00;5086948;28;20412;-75
2023/12/13 07:12:42;;;;;;;13.98;10.90;;;;;;;5.40;100.00;62551.72;5085803;28;20211;-75
2023/12/13 07:15:12;;;;;;;16.77;12.05;;;;;;;5.59;100.00;62576.34;5085744;28;20228;-76
2023/12/13 07:17:39;;;;;;;16.75;11.23;;;;;;;5.57;100.00;62571.75;5087401;28;20199;-76
2023/12/13 07:20:07;;;;;;;16.52;11.45;;;;;;;5.73;100.00;62587.72;5087142;28;20224;-77
2023/12/13 07:22:35;;;;;;;16.00;10.82;;;;;;;5.91;100.00;62603.75;5086848;28;20240;-76
2023/12/13 07:25:02;;;;;;;23.58;12.90;;;;;;;5.79;100.00;62594.44;5067248;28;20240;-77
2023/12/13 07:27:29;;;;;;;17.35;11.70;;;;;;;5.80;100.00;62597.44;5065891;28;20478;-76
2023/12/13 07:29:56;;;;;;;19.85;12.60;;;;;;;5.90;100.00;62607.28;5066088;28;20251;-75
2023/12/13 07:32:25;;;;;;;20.55;13.93;;;;;;;6.10;100.00;62623.34;5065678;28;20198;-76
2023/12/13 07:34:51;;;;;;;19.92;13.23;;;;;;;6.12;100.00;62625.41;5066238;28;20225;-76
2023/12/13 07:37:18;;;;;;;19.98;12.55;;;;;;;6.19;100.00;62635.16;5066373;28;20197;-75
2023/12/13 07:39:45;;;;;;;19.70;13.10;;;;;;;6.43;100.00;62657.38;5066213;28;20217;-74
2023/12/13 07:42:12;;;;;;;18.60;13.35;;;;;;;6.60;100.00;62676.91;5066068;28;20229;-74
2023/12/13 07:44:39;;;;;;;19.05;13.45;;;;;;;6.62;100.00;62681.50;5067041;28;20225;-76
2023/12/13 07:47:06;;;;;;;18.85;13.27;;;;;;;6.74;100.00;62689.34;5066244;28;20205;-75
2023/12/13 07:49:34;;;;;;;23.20;13.82;;;;;;;6.96;100.00;62712.03;5066959;28;20221;-75
2023/12/13 07:52:01;;;;;;;24.27;14.70;;;;;;;7.18;100.00;62734.19;5065850;28;20205;-75
2023/12/13 07:54:28;;;;;;;21.52;14.13;;;;;;;7.02;100.00;62722.75;5067003;28;20223;-76
2023/12/13 07:56:55;;;;;;;20.15;14.80;;;;;;;7.19;100.00;62734.72;5066330;28;20224;-76
2023/12/13 07:59:22;;;;;;;19.55;12.98;;;;;;;7.29;100.00;62747.56;5066195;28;20564;-76
2023/12/13 08:01:49;;;;;;;19.95;12.30;;;;;;;7.14;100.00;62730.09;5065687;28;20293;-77
2023/12/13 08:04:16;;;;;;;21.10;13.30;;;;;;;7.19;100.00;62732.19;5066257;28;20252;-75
2023/12/13 08:06:44;;;;;;;16.48;12.80;;;;;;;7.34;100.00;62753.25;5079968;28;20373;-76
2023/12/13 08:09:11;;;;;;;21.95;11.68;;;;;;;7.15;100.00;62733.63;5085329;28;20216;-75
2023/12/13 08:11:38;;;;;;;18.58;13.00;;;;;;;7.17;100.00;62732.66;5085420;28;20196;-75
2023/12/13 08:14:05;;;;;;;24.58;14.77;;;;;;;7.37;100.00;62753.81;5085145;28;20226;-74
2023/12/13 08:16:32;;;;;;;25.00;16.75;;;;;;;7.19;100.00;62742.31;5086424;28;20484;-76
2023/12/13 08:18:59;;;;;;;28.70;18.77;;;;;;;6.97;100.00;62718.13;5085565;28;20224;-75
2023/12/13 08:21:26;;;;;;;27.88;18.10;;;;;;;6.96;100.00;62716.56;5085702;28;20415;-77
2023/12/13 08:23:54;;;;;;;31.55;18.40;;;;;;;7.13;100.00;62733.59;5085092;28;20242;-75
2023/12/13 08:26:21;;;;;;;26.20;19.52;;;;;;;7.04;100.00;62722.28;5084861;28;20402;-75
2023/12/13 08:28:48;;;;;;;33.35;20.83;;;;;;;6.87;100.00;62702.22;5084598;28;20228;-75
2023/12/13 08:31:15;;;;;;;34.40;21.17;;;;;;;6.81;100.00;62696.03;5086142;28;20197;-74
2023/12/13 08:33:42;;;;;;;33.63;21.02;;;;;;;7.00;100.00;62718.69;5084963;28;20216;-74
2023/12/13 08:36:10;;;;;;;32.83;20.73;;;;;;;7.23;100.00;62746.94;5085211;28;20398;-74
2023/12/13 08:38:38;;;;;;;32.95;19.95;;;;;;;7.24;100.00;62744.94;5084495;28;20275;-76
2023/12/13 08:41:08;;;;;;;37.28;20.95;;;;;;;6.96;100.00;62709.50;5084863;28;20192;-74
2023/12/13 08:43:34;;;;;;;32.42;21.35;;;;;;;7.21;100.00;62741.84;5084699;28;20240;-75
2023/12/13 08:46:01;;;;;;;27.55;19.77;;;;;;;7.38;100.00;62751.78;5085017;28;20196;-74
2023/12/13 08:48:28;;;;;;;33.67;21.60;;;;;;;7.62;100.00;62782.16;5085182;28;20450;-74
2023/12/13 08:50:55;;;;;;;31.17;20.27;;;;;;;7.87;100.00;62802.34;5084778;28;20209;-75
2023/12/13 08:53:22;;;;;;;33.10;21.42;;;;;;;7.92;100.00;62808.03;5085866;28;20493;-75
2023/12/13 08:55:49;;;;;;;33.33;20.63;;;;;;;8.02;100.00;62822.94;5085748;28;20204;-75
2023/12/13 08:58:17;;;;;;;28.98;20.15;;;;;;;8.16;100.00;62834.84;5084950;28;20197;-76
2023/12/13 09:00:44;;;;;;;28.05;18.80;;;;;;;8.26;100.00;62847.22;5085298;28;20385;-76
2023/12/13 09:03:11;;;;;;;45.30;26.67;;;;;;;8.17;100.00;62838.94;5085452;28;20230;-76
2023/12/13 09:05:38;;;;;;;39.67;27.63;;;;;;;8.27;100.00;62843.16;5085165;28;20213;-74
2023/12/13 09:08:05;;;;;;;36.20;22.42;;;;;;;7.82;100.00;62805.31;5084832;28;20388;-76
2023/12/13 09:10:34;;;;;;;30.48;20.05;;;;;;;7.57;100.00;62779.53;5086535;28;20224;-75
2023/12/13 09:13:02;;;;;;;31.23;22.70;;;;;;;7.45;100.00;62764.59;5084348;28;20250;-75
2023/12/13 09:15:31;;;;;;;35.40;21.92;;;;;;;7.47;100.00;62768.69;5084600;28;20227;-74
2023/12/13 09:17:57;;;;;;;34.33;22.77;;;;;;;7.77;100.00;62799.63;5084277;28;20193;-75
2023/12/13 09:20:24;;;;;;;33.08;22.13;;;;;;;7.91;100.00;62811.56;5083974;28;20266;-76
2023/12/13 09:22:51;;;;;;;31.13;20.40;;;;;;;8.13;100.00;62829.22;5084419;28;20239;-75
2023/12/13 09:25:18;;;;;;;34.28;20.50;;;;;;;8.12;100.00;62835.78;5085372;28;20887;-77
2023/12/13 09:27:46;;;;;;;32.53;19.35;;;;;;;8.14;100.00;62837.84;5084969;28;20197;-76
2023/12/13 09:30:13;;;;;;;28.88;20.17;;;;;;;8.39;100.00;62860.66;5085095;28;20220;-74
2023/12/13 09:32:42;;;;;;;28.55;19.50;;;;;;;8.31;100.00;62855.44;5084833;28;20481;-74
2023/12/13 09:35:09;;;;;;;24.35;18.50;;;;;;;8.50;100.00;62877.59;5084187;28;20223;-74
2023/12/13 09:37:36;;;;;;;28.88;18.98;;;;;;;8.28;100.00;62844.72;5084275;28;20208;-75
2023/12/13 09:40:03;;;;;;;34.80;21.83;;;;;;;8.36;100.00;62862.59;5084251;28;20269;-75
2023/12/13 09:42:30;;;;;;;34.70;21.38;;;;;;;8.82;100.00;62905.06;5083844;28;20594;-76
2023/12/13 09:44:57;;;;;;;37.80;22.33;;;;;;;8.52;100.00;62871.53;5084439;28;20287;-75
2023/12/13 09:47:24;;;;;;;35.80;21.60;;;;;;;8.14;100.00;62835.31;5083837;28;20211;-76
2023/12/13 09:49:53;;;;;;;40.67;22.77;;;;;;;8.58;100.00;62883.31;5084029;28;20266;-75
2023/12/13 09:52:20;;;;;;;33.85;22.17;;;;;;;8.83;100.00;62909.16;5085704;28;20196;-76
2023/12/13 09:54:47;;;;;;;28.17;18.20;;;;;;;9.27;100.00;62949.56;5084121;28;20224;-76
2023/12/13 09:57:14;;;;;;;32.70;20.33;;;;;;;9.67;100.00;62992.94;5084496;28;20203;-77
2023/12/13 09:59:41;;;;;;;26.38;16.38;;;;;;;9.38;100.00;62965.50;5083757;28;20216;-75
2023/12/13 10:02:12;;;;;;;22.25;14.55;;;;;;;9.59;96.25;62986.69;5083912;28;20255;-76
2023/12/13 10:04:38;;;;;;;40.90;20.45;;;;;;;9.45;100.00;62977.81;5084350;28;20227;-77
2023/12/13 10:07:07;;;;;;;36.55;19.00;;;;;;;9.64;97.53;62989.31;5083927;28;20197;-75
2023/12/13 10:09:34;;;;;;;29.23;16.67;;;;;;;9.78;94.74;63004.31;5084913;28;20280;-74
2023/12/13 10:12:01;;;;;;;52.10;22.63;;;;;;;9.97;97.94;63026.00;5083608;28;20215;-74
2023/12/13 10:14:29;;;;;;;26.15;16.30;;;;;;;9.97;90.56;63026.00;5084141;28;20221;-75
2023/12/13 10:16:56;;;;;;;36.97;20.63;;;;;;;10.05;93.03;63034.78;5084741;28;20196;-76
2023/12/13 10:19:24;;;;;;;26.70;16.77;;;;;;;9.73;92.83;63001.69;5083676;28;20227;-74
2023/12/13 10:21:50;;;;;;;33.08;16.80;;;;;;;9.53;94.60;62977.94;5084365;28;20228;-76
2023/12/13 10:24:21;;;;;;;22.42;16.58;;;;;;;9.49;93.97;62978.88;5083367;28;20242;-74
2023/12/13 10:26:48;;;;;;;28.08;16.58;;;;;;;9.38;95.63;62962.94;5085081;28;20489;-76
2023/12/13 10:29:15;;;;;;;24.25;16.33;;;;;;;9.50;95.83;62974.84;5083970;28;20232;-75
2023/12/13 10:31:42;;;;;;;22.00;16.55;;;;;;;9.70;92.96;62995.53;5083864;28;20206;-77
2023/12/13 10:34:08;;;;;;;31.98;18.77;;;;;;;9.28;95.65;62955.16;5084278;28;20216;-75
2023/12/13 10:36:36;;;;;;;33.05;19.13;;;;;;;9.51;95.51;62978.94;5083888;28;20272;-76
2023/12/13 10:39:03;;;;;;;29.35;19.20;;;;;;;9.49;94.50;62973.81;5084081;28;20225;-76
2023/12/13 10:41:31;;;;;;;29.50;18.02;;;;;;;9.67;96.00;62995.47;5084844;28;20260;-74
2023/12/13 10:43:59;;;;;;;29.67;17.98;;;;;;;9.74;95.24;62999.66;5083970;28;20254;-76
2023/12/13 10:46:27;;;;;;;31.65;19.85;;;;;;;9.75;96.77;63001.19;5083357;28;20214;-77
2023/12/13 10:48:54;;;;;;;26.05;18.17;;;;;;;9.48;93.35;62975.81;5083954;28;20227;-74
2023/12/13 10:51:21;;;;;;;27.55;18.00;;;;;;;9.33;96.31;62960.31;5088474;28;20201;-75
2023/12/13 10:53:48;;;;;;;33.70;19.33;;;;;;;9.31;96.59;62955.72;5085848;28;20217;-76
2023/12/13 10:56:15;;;;;;;31.88;18.98;;;;;;;9.33;98.01;62957.78;5086358;28;20227;-76
2023/12/13 10:58:44;;;;;;;24.42;17.05;;;;;;;9.08;97.49;62934.47;5086851;28;20276;-76
2023/12/13 11:01:11;;;;;;;26.40;17.42;;;;;;;8.93;99.62;62918.97;5086150;28;20251;-76
2023/12/13 11:03:41;;;;;;;28.17;18.92;;;;;;;9.10;99.56;62937.06;5085862;28;20224;-76
2023/12/13 11:06:08;;;;;;;35.80;19.63;;;;;;;9.16;98.92;62935.13;5086010;28;20509;-76
2023/12/13 11:08:39;;;;;;;26.10;18.80;;;;;;;9.26;97.52;62953.59;5086024;28;20229;-76
2023/12/13 11:11:06;;;;;;;32.83;18.77;;;;;;;9.14;98.56;62936.13;5086048;28;20238;-76
2023/12/13 11:13:33;;;;;;;29.88;18.58;;;;;;;8.85;100.00;62910.72;5087245;28;20385;-78
2023/12/13 11:16:01;;;;;;;26.20;18.48;;;;;;;9.03;99.64;62934.38;5086699;28;20197;-75
2023/12/13 11:18:30;;;;;;;30.67;17.00;;;;;;;9.06;97.51;62929.88;5081996;28;20228;-76
2023/12/13 11:20:58;;;;;;;31.20;17.08;;;;;;;9.13;98.00;62939.63;5085978;28;20200;-77
2023/12/13 11:23:26;;;;;;;28.27;17.13;;;;;;;9.16;96.78;62943.25;5085671;28;20220;-75
2023/12/13 11:25:53;;;;;;;31.45;16.38;;;;;;;9.20;96.90;62941.78;5086095;28;20196;-75